Time;durP1;ratioP1;P1;durP2;ratioP2;P2;SDS_P1;SDS_P2;PMS_P1;PMS_P2;Temp;Humidity;BMP_temperature;BMP_pressure;BME280_temperature;BME280_humidity;BME280_pressure;Samples;Min_cycle;Max_cycle;Signal;HPM_P1;HPM_P2
2022/03/06 00:00:08;;;;;;;28.47;14.07;;;3.30;99.90;;;;;;4985530;28;20711;-86
2022/03/06 00:02:36;;;;;;;25.57;13.87;;;3.30;99.90;;;;;;4999129;28;20215;-88
2022/03/06 00:05:05;;;;;;;25.87;15.67;;;3.40;99.90;;;;;;4985809;28;20237;-88
2022/03/06 00:07:32;;;;;;;31.93;15.07;;;3.50;99.90;;;;;;4964575;28;20205;-86
2022/03/06 00:09:59;;;;;;;28.10;14.83;;;3.40;99.90;;;;;;4982871;28;20209;-86
2022/03/06 00:12:25;;;;;;;26.07;14.60;;;3.30;99.90;;;;;;4998982;28;20311;-85
2022/03/06 00:14:52;;;;;;;24.70;13.80;;;3.30;99.90;;;;;;4969510;28;20213;-85
2022/03/06 00:17:19;;;;;;;24.93;14.90;;;3.30;99.90;;;;;;4997085;28;20210;-84
2022/03/06 00:19:46;;;;;;;26.83;14.27;;;3.30;99.90;;;;;;4984363;28;20237;-86
2022/03/06 00:22:13;;;;;;;25.83;15.37;;;3.30;99.90;;;;;;4987503;28;20283;-85
2022/03/06 00:24:40;;;;;;;31.60;17.47;;;3.30;99.90;;;;;;4996271;28;20248;-85
2022/03/06 00:27:07;;;;;;;32.53;17.30;;;3.30;99.90;;;;;;4999953;28;20647;-85
2022/03/06 00:29:34;;;;;;;30.90;17.90;;;3.20;99.90;;;;;;5000468;28;20221;-84
2022/03/06 00:32:01;;;;;;;32.70;17.53;;;3.20;99.90;;;;;;4998234;28;20233;-84
2022/03/06 00:34:28;;;;;;;29.13;17.07;;;3.20;99.90;;;;;;4997644;28;20232;-85
2022/03/06 00:36:55;;;;;;;28.80;16.70;;;3.10;99.90;;;;;;4967913;28;20295;-86
2022/03/06 00:39:22;;;;;;;28.10;15.37;;;3.10;99.90;;;;;;4981638;28;20236;-84
2022/03/06 00:41:49;;;;;;;29.10;15.30;;;3.20;99.90;;;;;;4982638;28;20220;-83
2022/03/06 00:44:16;;;;;;;27.80;14.80;;;3.00;99.90;;;;;;4999305;28;20957;-86
2022/03/06 00:46:43;;;;;;;24.27;14.07;;;3.10;99.90;;;;;;5005172;28;20217;-86
2022/03/06 00:49:10;;;;;;;24.50;13.33;;;2.90;99.90;;;;;;4987729;28;20272;-85
2022/03/06 00:51:37;;;;;;;27.10;14.77;;;3.10;99.90;;;;;;5001331;28;20213;-86
2022/03/06 00:54:04;;;;;;;28.13;15.13;;;3.00;99.90;;;;;;5002481;28;20213;-84
2022/03/06 00:56:31;;;;;;;24.13;13.30;;;3.00;99.90;;;;;;4984819;28;20229;-85
2022/03/06 00:58:58;;;;;;;26.90;14.27;;;3.00;99.90;;;;;;4985741;28;20325;-88
2022/03/06 01:01:25;;;;;;;23.87;13.17;;;2.90;99.90;;;;;;4970851;28;20213;-84
2022/03/06 01:03:52;;;;;;;25.03;13.80;;;2.80;99.90;;;;;;4984250;28;20210;-85
2022/03/06 01:06:19;;;;;;;29.43;14.30;;;2.90;99.90;;;;;;4969900;28;20356;-87
2022/03/06 01:08:46;;;;;;;23.00;13.83;;;2.70;99.90;;;;;;4984363;28;20264;-85
2022/03/06 01:11:13;;;;;;;23.23;14.47;;;2.70;99.90;;;;;;4989582;28;20272;-85
2022/03/06 01:13:41;;;;;;;24.83;13.77;;;2.80;99.90;;;;;;4973450;28;20205;-83
2022/03/06 01:16:08;;;;;;;23.27;12.60;;;2.90;99.90;;;;;;4989562;28;20226;-86
2022/03/06 01:18:35;;;;;;;25.30;12.97;;;2.70;99.90;;;;;;5018742;28;20566;-86
2022/03/06 01:21:02;;;;;;;24.63;12.60;;;2.70;99.90;;;;;;5005307;28;20221;-83
2022/03/06 01:23:30;;;;;;;20.60;11.83;;;2.80;99.90;;;;;;5003693;28;20615;-87
2022/03/06 01:25:57;;;;;;;22.90;12.83;;;2.70;99.90;;;;;;5003182;28;20285;-84
2022/03/06 01:28:24;;;;;;;22.20;12.97;;;2.80;99.90;;;;;;5003686;28;20684;-84
2022/03/06 01:30:51;;;;;;;23.87;11.83;;;2.60;99.90;;;;;;4988364;28;20202;-85
2022/03/06 01:33:18;;;;;;;26.10;13.20;;;2.60;99.90;;;;;;4991769;28;20519;-83
2022/03/06 01:35:45;;;;;;;22.97;11.90;;;2.60;99.90;;;;;;4991034;28;20208;-84
2022/03/06 01:38:12;;;;;;;22.77;11.97;;;2.60;99.90;;;;;;4990091;28;20507;-86
2022/03/06 01:40:39;;;;;;;22.50;12.80;;;2.50;99.90;;;;;;4986902;28;20321;-85
2022/03/06 01:43:06;;;;;;;21.67;12.43;;;2.60;99.90;;;;;;5002139;28;20216;-85
2022/03/06 01:45:33;;;;;;;21.47;13.23;;;2.30;99.90;;;;;;5000963;28;20267;-84
2022/03/06 01:48:03;;;;;;;22.80;12.53;;;2.40;99.90;;;;;;4986105;28;20202;-86
2022/03/06 01:50:32;;;;;;;19.10;11.87;;;2.40;99.90;;;;;;4987027;28;20214;-84
2022/03/06 01:53:02;;;;;;;21.50;11.87;;;2.30;99.90;;;;;;5001747;28;20229;-86
2022/03/06 01:55:30;;;;;;;25.13;12.17;;;2.50;99.90;;;;;;5013232;28;20287;-84
2022/03/06 01:58:01;;;;;;;23.27;12.73;;;2.50;99.90;;;;;;5003586;28;20210;-84
2022/03/06 02:00:38;;;;;;;24.57;12.63;;;2.40;99.90;;;;;;5003799;28;20304;-87
2022/03/06 02:03:06;;;;;;;21.27;12.90;;;2.40;99.90;;;;;;5006042;28;21034;-86
2022/03/06 02:05:34;;;;;;;26.73;13.10;;;2.40;99.90;;;;;;4985371;28;20295;-85
2022/03/06 02:08:01;;;;;;;22.67;11.77;;;2.20;99.90;;;;;;5004828;28;20206;-86
2022/03/06 02:10:28;;;;;;;23.53;12.03;;;2.30;99.90;;;;;;5001471;28;20244;-86
2022/03/06 02:12:55;;;;;;;20.07;11.60;;;2.20;99.90;;;;;;4988392;28;20629;-86
2022/03/06 02:15:22;;;;;;;23.17;12.30;;;2.30;99.90;;;;;;4972323;28;20233;-89
2022/03/06 02:17:49;;;;;;;26.73;12.00;;;2.30;99.90;;;;;;5002267;28;20241;-87
2022/03/06 02:20:22;;;;;;;22.17;11.97;;;2.30;99.90;;;;;;5006003;28;20252;-89
2022/03/06 02:22:52;;;;;;;20.83;10.80;;;2.30;99.90;;;;;;5005528;28;20208;-87
2022/03/06 02:25:24;;;;;;;22.77;11.83;;;2.20;99.90;;;;;;5004779;28;20225;-86
2022/03/06 02:27:53;;;;;;;24.57;12.07;;;2.00;99.90;;;;;;5010745;28;20287;-88
2022/03/06 02:30:26;;;;;;;24.30;12.87;;;2.10;99.90;;;;;;4992958;28;20239;-86
2022/03/06 02:32:54;;;;;;;20.87;11.13;;;2.00;99.90;;;;;;5004129;28;20253;-87
2022/03/06 02:35:21;;;;;;;22.73;11.47;;;2.10;99.90;;;;;;4993330;28;20221;-88
2022/03/06 02:37:48;;;;;;;23.57;11.73;;;2.10;99.90;;;;;;4990388;28;20208;-86
2022/03/06 02:40:16;;;;;;;22.80;12.03;;;2.00;99.90;;;;;;4973994;28;20233;-87
2022/03/06 02:42:45;;;;;;;17.47;11.50;;;2.00;99.90;;;;;;5008744;28;20202;-87
2022/03/06 02:45:18;;;;;;;21.97;11.13;;;2.00;99.90;;;;;;5006377;28;20206;-86
2022/03/06 02:47:46;;;;;;;22.53;11.27;;;2.00;99.90;;;;;;5004945;28;20209;-87
2022/03/06 02:50:19;;;;;;;20.83;11.73;;;1.90;99.90;;;;;;5005071;28;20264;-85
2022/03/06 02:52:47;;;;;;;19.23;10.70;;;2.00;99.90;;;;;;5007025;28;20264;-90
2022/03/06 02:55:15;;;;;;;17.50;11.17;;;2.00;99.90;;;;;;5013685;28;20655;-88
2022/03/06 02:57:43;;;;;;;23.03;11.20;;;1.90;99.90;;;;;;5005217;28;20196;-87
2022/03/06 03:00:13;;;;;;;18.87;10.93;;;2.00;99.90;;;;;;5008785;28;20213;-88
2022/03/06 03:02:41;;;;;;;21.87;12.00;;;1.80;99.90;;;;;;5020289;28;20213;-89
2022/03/06 03:05:13;;;;;;;19.77;10.33;;;1.80;99.90;;;;;;5006798;28;20312;-87
2022/03/06 03:07:41;;;;;;;20.27;11.27;;;1.80;99.90;;;;;;5010314;28;20224;-88
2022/03/06 03:10:12;;;;;;;21.50;11.50;;;1.90;99.90;;;;;;5003237;28;20209;-89
2022/03/06 03:12:39;;;;;;;19.57;10.90;;;1.80;99.90;;;;;;5004789;28;20252;-89
2022/03/06 03:15:08;;;;;;;17.73;9.57;;;1.70;99.90;;;;;;5006366;28;20227;-87
2022/03/06 03:17:35;;;;;;;15.53;11.30;;;1.60;99.90;;;;;;5002655;28;20243;-90
2022/03/06 03:20:03;;;;;;;17.67;10.23;;;1.70;99.90;;;;;;5000715;28;20233;-88
2022/03/06 03:22:31;;;;;;;17.90;10.63;;;1.60;99.90;;;;;;5001550;28;20209;-88
2022/03/06 03:24:57;;;;;;;18.60;10.93;;;1.60;99.90;;;;;;5008799;28;20206;-88
2022/03/06 03:27:24;;;;;;;19.43;11.03;;;1.60;99.90;;;;;;5002209;28;20624;-87
2022/03/06 03:29:51;;;;;;;20.97;10.30;;;1.70;99.90;;;;;;5003101;28;20675;-88
2022/03/06 03:32:18;;;;;;;18.13;9.87;;;1.70;99.90;;;;;;5005999;28;20552;-87
2022/03/06 03:34:45;;;;;;;20.50;11.00;;;1.70;99.90;;;;;;5000419;28;20255;-87
2022/03/06 03:37:11;;;;;;;18.17;10.67;;;1.70;99.90;;;;;;5008062;28;20270;-87
2022/03/06 03:39:38;;;;;;;16.77;10.40;;;1.60;99.90;;;;;;5003163;28;20226;-88
2022/03/06 03:42:06;;;;;;;22.63;10.63;;;1.60;99.90;;;;;;5001911;28;20212;-88
2022/03/06 03:44:32;;;;;;;16.33;10.33;;;1.60;99.90;;;;;;5004452;28;20217;-89
2022/03/06 03:46:59;;;;;;;18.37;10.80;;;1.50;99.90;;;;;;5000459;28;20268;-88
2022/03/06 03:49:26;;;;;;;17.10;10.77;;;1.50;99.90;;;;;;4999629;28;20212;-89
2022/03/06 03:51:53;;;;;;;19.03;10.70;;;1.60;99.90;;;;;;5014808;28;20232;-87
2022/03/06 03:54:20;;;;;;;15.93;10.00;;;1.50;99.90;;;;;;4999213;28;20201;-88
2022/03/06 03:56:47;;;;;;;15.17;9.27;;;1.60;99.90;;;;;;4997620;28;20205;-88
2022/03/06 03:59:14;;;;;;;16.53;9.87;;;1.50;99.90;;;;;;5001509;28;20225;-87
2022/03/06 04:01:40;;;;;;;17.00;11.07;;;1.50;99.90;;;;;;4999131;28;20201;-88
2022/03/06 04:04:08;;;;;;;15.47;9.77;;;1.50;99.90;;;;;;5002173;28;20287;-87
2022/03/06 04:06:35;;;;;;;16.37;9.87;;;1.50;99.90;;;;;;4998655;28;20249;-88
2022/03/06 04:09:02;;;;;;;17.60;10.83;;;1.60;99.90;;;;;;5015110;28;20702;-88
2022/03/06 04:11:29;;;;;;;23.43;11.57;;;1.60;99.90;;;;;;5000686;28;20213;-86
2022/03/06 04:13:56;;;;;;;18.03;10.83;;;1.50;99.90;;;;;;4999459;28;20217;-87
2022/03/06 04:16:23;;;;;;;18.03;10.43;;;1.60;99.90;;;;;;5014133;28;20531;-87
2022/03/06 04:18:50;;;;;;;18.97;10.67;;;1.60;99.90;;;;;;5000651;28;20201;-87
2022/03/06 04:21:17;;;;;;;19.90;10.80;;;1.50;99.90;;;;;;5003672;28;20275;-89
2022/03/06 04:23:45;;;;;;;16.77;10.67;;;1.60;99.90;;;;;;4999286;28;20216;-87
2022/03/06 04:26:12;;;;;;;15.10;9.70;;;1.60;99.90;;;;;;5000773;28;20220;-89
2022/03/06 04:28:39;;;;;;;16.57;10.10;;;1.50;99.90;;;;;;5004857;28;20281;-88
2022/03/06 04:31:06;;;;;;;17.10;10.43;;;1.40;99.90;;;;;;4999696;28;20255;-88
2022/03/06 04:33:33;;;;;;;17.00;10.37;;;1.50;99.90;;;;;;5002767;28;20223;-90
2022/03/06 04:36:00;;;;;;;15.57;10.27;;;1.40;99.90;;;;;;5005379;28;20209;-89
2022/03/06 04:38:27;;;;;;;14.17;9.83;;;1.30;99.90;;;;;;5001036;28;20212;-89
2022/03/06 04:40:55;;;;;;;17.37;9.83;;;1.40;99.90;;;;;;5001126;28;20213;-88
2022/03/06 04:43:24;;;;;;;17.80;10.37;;;1.30;99.90;;;;;;4998735;28;20217;-89
2022/03/06 04:45:51;;;;;;;18.37;10.67;;;1.30;99.90;;;;;;5003993;28;20767;-87
2022/03/06 04:48:18;;;;;;;18.43;10.40;;;1.30;99.90;;;;;;5010540;28;20500;-88
2022/03/06 04:50:45;;;;;;;13.47;9.07;;;1.30;99.90;;;;;;5005639;28;20220;-88
2022/03/06 04:53:12;;;;;;;17.67;10.70;;;1.20;99.90;;;;;;5007331;28;20222;-87
2022/03/06 04:55:39;;;;;;;14.57;8.87;;;1.30;99.90;;;;;;5010304;28;20205;-89
2022/03/06 04:58:07;;;;;;;13.53;9.60;;;1.30;99.90;;;;;;5005956;28;20238;-88
2022/03/06 05:00:34;;;;;;;14.70;9.30;;;1.30;99.90;;;;;;5006244;28;20196;-88
2022/03/06 05:03:01;;;;;;;13.20;9.37;;;1.20;99.90;;;;;;5004598;28;20216;-88
2022/03/06 05:05:29;;;;;;;15.53;10.00;;;1.20;99.90;;;;;;5009551;28;20323;-89
2022/03/06 05:07:56;;;;;;;16.87;10.40;;;1.30;99.90;;;;;;5003960;28;20275;-88
2022/03/06 05:10:23;;;;;;;13.30;9.50;;;1.30;99.90;;;;;;5010414;28;20326;-89
2022/03/06 05:12:49;;;;;;;13.93;10.17;;;1.30;99.90;;;;;;5003888;28;20225;-88
2022/03/06 05:15:17;;;;;;;17.23;10.73;;;1.20;99.90;;;;;;5006229;28;20726;-88
2022/03/06 05:17:43;;;;;;;17.13;10.20;;;1.30;99.90;;;;;;5017333;28;20219;-85
2022/03/06 05:20:12;;;;;;;12.97;9.53;;;1.20;99.90;;;;;;5003612;28;20224;-88
2022/03/06 05:22:39;;;;;;;15.37;9.27;;;1.20;99.90;;;;;;5007478;28;20212;-88
2022/03/06 05:25:10;;;;;;;15.50;9.93;;;1.20;99.90;;;;;;5008473;28;20659;-90
2022/03/06 05:27:38;;;;;;;17.27;10.40;;;1.20;99.90;;;;;;5004396;28;20221;-87
2022/03/06 05:30:08;;;;;;;18.57;9.17;;;1.10;99.90;;;;;;5005628;28;20659;-87
2022/03/06 05:32:35;;;;;;;17.97;10.63;;;1.10;99.90;;;;;;5008086;28;20216;-87
2022/03/06 05:35:03;;;;;;;16.97;9.60;;;1.10;99.90;;;;;;5004335;28;20791;-87
2022/03/06 05:37:29;;;;;;;16.10;10.10;;;1.10;99.90;;;;;;5002852;28;20210;-87
2022/03/06 05:39:56;;;;;;;15.33;9.60;;;1.30;99.90;;;;;;5002968;28;20657;-87
2022/03/06 05:42:24;;;;;;;15.67;9.70;;;1.20;99.90;;;;;;5001075;28;20305;-87
2022/03/06 05:44:51;;;;;;;14.33;10.07;;;1.00;99.90;;;;;;5004715;28;20212;-87
2022/03/06 05:47:18;;;;;;;16.10;10.53;;;1.00;99.90;;;;;;5019180;28;20226;-87
2022/03/06 05:49:45;;;;;;;14.40;10.60;;;1.00;99.90;;;;;;5007930;28;20229;-86
2022/03/06 05:52:12;;;;;;;17.00;9.70;;;1.00;99.90;;;;;;4993070;28;20217;-86
2022/03/06 05:54:39;;;;;;;24.67;10.13;;;1.00;99.90;;;;;;5000447;28;20658;-86
2022/03/06 05:57:06;;;;;;;16.40;10.07;;;1.00;99.90;;;;;;5003262;28;20234;-88
2022/03/06 05:59:33;;;;;;;19.27;9.97;;;1.10;99.90;;;;;;5016541;28;20236;-89
2022/03/06 06:02:01;;;;;;;16.20;9.53;;;1.00;99.90;;;;;;5002225;28;20596;-88
2022/03/06 06:04:28;;;;;;;14.27;9.87;;;1.00;99.90;;;;;;5003256;28;20296;-87
2022/03/06 06:06:55;;;;;;;14.03;8.57;;;1.00;99.90;;;;;;5002484;28;20209;-88
2022/03/06 06:09:22;;;;;;;14.33;9.93;;;0.80;99.90;;;;;;5003855;28;20279;-88
2022/03/06 06:11:49;;;;;;;15.83;9.70;;;0.90;99.90;;;;;;5001857;28;20633;-88
2022/03/06 06:14:16;;;;;;;15.83;9.67;;;0.90;99.90;;;;;;5003147;28;20321;-86
2022/03/06 06:16:46;;;;;;;17.07;9.77;;;0.90;99.90;;;;;;5003431;28;20207;-87
2022/03/06 06:19:13;;;;;;;16.57;9.27;;;0.90;99.90;;;;;;5007579;28;20578;-86
2022/03/06 06:21:43;;;;;;;16.67;10.07;;;1.00;99.90;;;;;;5002333;28;20855;-88
2022/03/06 06:24:14;;;;;;;14.60;10.00;;;1.00;99.90;;;;;;5005249;28;20219;-87
2022/03/06 06:26:42;;;;;;;13.63;9.83;;;1.00;99.90;;;;;;5007323;28;20560;-86
2022/03/06 06:29:10;;;;;;;16.57;9.60;;;0.90;99.90;;;;;;5004620;28;20603;-86
2022/03/06 06:31:36;;;;;;;16.67;9.37;;;0.90;99.90;;;;;;4999821;28;20288;-86
2022/03/06 06:34:03;;;;;;;15.67;9.40;;;1.00;99.90;;;;;;5003178;28;20226;-86
2022/03/06 06:36:30;;;;;;;14.30;9.10;;;0.90;99.90;;;;;;5002263;28;20202;-88
2022/03/06 06:38:57;;;;;;;18.40;10.13;;;1.10;99.90;;;;;;5003186;28;20205;-88
2022/03/06 06:41:24;;;;;;;17.73;10.20;;;1.00;99.90;;;;;;5002541;28;20276;-88
2022/03/06 06:43:51;;;;;;;17.87;10.17;;;1.00;99.90;;;;;;4983975;28;20214;-88
2022/03/06 06:46:18;;;;;;;13.07;8.80;;;1.00;99.90;;;;;;5013482;28;20217;-87
2022/03/06 06:48:45;;;;;;;13.33;8.97;;;1.00;99.90;;;;;;5001288;28;20225;-88
2022/03/06 06:51:12;;;;;;;14.10;9.13;;;0.90;99.90;;;;;;5002031;28;20241;-86
2022/03/06 06:53:39;;;;;;;15.67;9.77;;;0.90;99.90;;;;;;5002920;28;20257;-86
2022/03/06 06:56:06;;;;;;;16.90;9.27;;;1.00;99.90;;;;;;5001848;28;20597;-85
2022/03/06 06:58:33;;;;;;;14.10;9.30;;;1.10;99.90;;;;;;5000588;28;20231;-86
2022/03/06 07:01:00;;;;;;;13.63;9.33;;;1.10;99.90;;;;;;4998050;28;20321;-85
2022/03/06 07:03:27;;;;;;;15.47;9.63;;;1.10;99.90;;;;;;5005367;28;20262;-85
2022/03/06 07:05:56;;;;;;;15.87;9.37;;;1.20;99.90;;;;;;5001219;28;20233;-88
2022/03/06 07:08:24;;;;;;;16.73;10.33;;;1.40;99.90;;;;;;5004980;28;20253;-87
2022/03/06 07:10:51;;;;;;;13.97;9.40;;;1.40;99.90;;;;;;5004200;28;20309;-88
2022/03/06 07:13:18;;;;;;;15.27;10.33;;;1.50;99.90;;;;;;5006615;28;20669;-86
2022/03/06 07:15:45;;;;;;;16.50;9.87;;;1.50;99.90;;;;;;5006301;28;20212;-87
2022/03/06 07:18:12;;;;;;;15.70;9.87;;;1.70;99.90;;;;;;4998528;28;20244;-86
2022/03/06 07:20:39;;;;;;;14.97;9.83;;;1.70;99.90;;;;;;5005678;28;20219;-88
2022/03/06 07:23:06;;;;;;;18.37;11.13;;;1.60;99.90;;;;;;4998263;28;20204;-87
2022/03/06 07:25:33;;;;;;;13.10;9.30;;;1.70;99.90;;;;;;4990700;28;20237;-89
2022/03/06 07:28:00;;;;;;;15.47;9.73;;;1.60;99.90;;;;;;5002108;28;20220;-87
2022/03/06 07:30:27;;;;;;;12.70;8.87;;;1.70;99.90;;;;;;5000742;28;20222;-88
2022/03/06 07:32:54;;;;;;;14.57;10.37;;;1.90;99.90;;;;;;5001426;28;20231;-88
2022/03/06 07:35:22;;;;;;;13.37;9.70;;;2.00;99.90;;;;;;5002606;28;20550;-86
2022/03/06 07:37:49;;;;;;;16.87;10.30;;;2.00;99.90;;;;;;5003567;28;20214;-88
2022/03/06 07:40:18;;;;;;;13.13;8.07;;;2.10;99.90;;;;;;5002579;28;20240;-86
2022/03/06 07:42:45;;;;;;;16.07;11.17;;;2.00;99.90;;;;;;5001858;28;20210;-88
2022/03/06 07:45:12;;;;;;;15.03;9.07;;;2.10;99.90;;;;;;5003443;28;20280;-86
2022/03/06 07:47:39;;;;;;;12.70;8.53;;;2.20;99.90;;;;;;5002868;28;20210;-87
2022/03/06 07:50:09;;;;;;;14.63;9.40;;;2.40;99.90;;;;;;5000865;28;20241;-86
2022/03/06 07:52:36;;;;;;;16.47;9.83;;;2.60;99.90;;;;;;5005859;28;20346;-86
2022/03/06 07:55:06;;;;;;;15.00;9.73;;;2.70;99.90;;;;;;5004260;28;20227;-88
2022/03/06 07:57:33;;;;;;;13.03;9.20;;;2.80;99.90;;;;;;5004428;28;20223;-88
2022/03/06 08:00:00;;;;;;;15.13;9.63;;;2.90;99.90;;;;;;5006014;28;20228;-87
2022/03/06 08:02:27;;;;;;;13.40;9.20;;;3.00;99.90;;;;;;5001671;28;20565;-86
2022/03/06 08:04:54;;;;;;;14.50;10.20;;;3.20;99.90;;;;;;4999049;28;20340;-88
2022/03/06 08:07:21;;;;;;;14.57;10.77;;;3.30;99.90;;;;;;5002207;28;20586;-85
2022/03/06 08:09:48;;;;;;;14.53;9.93;;;3.40;99.90;;;;;;5017164;28;20735;-85
2022/03/06 08:12:15;;;;;;;13.57;8.53;;;3.70;99.90;;;;;;4996250;28;20204;-88
2022/03/06 08:14:42;;;;;;;11.90;8.77;;;3.50;99.90;;;;;;5000789;28;20787;-88
2022/03/06 08:17:08;;;;;;;14.67;8.73;;;3.50;99.90;;;;;;4999610;28;20199;-86
2022/03/06 08:19:35;;;;;;;13.13;9.50;;;3.60;99.90;;;;;;4998347;28;20311;-84
2022/03/06 08:22:02;;;;;;;15.37;9.80;;;3.60;99.90;;;;;;4999104;28;20857;-84
2022/03/06 08:24:30;;;;;;;14.70;9.17;;;3.60;99.90;;;;;;4997515;28;20206;-84
2022/03/06 08:26:57;;;;;;;12.97;9.50;;;3.80;99.90;;;;;;4966864;28;20213;-85
2022/03/06 08:29:24;;;;;;;13.40;9.47;;;4.10;99.90;;;;;;4981558;28;20266;-82
2022/03/06 08:31:52;;;;;;;14.70;10.03;;;4.20;99.90;;;;;;5000506;28;20202;-85
2022/03/06 08:34:19;;;;;;;12.13;9.00;;;4.30;99.90;;;;;;4999286;28;20271;-85
2022/03/06 08:36:47;;;;;;;15.50;9.60;;;4.30;99.90;;;;;;5004224;28;20914;-83
2022/03/06 08:39:14;;;;;;;14.87;9.50;;;4.30;99.90;;;;;;5013935;28;20224;-83
2022/03/06 08:41:42;;;;;;;12.17;9.43;;;4.50;99.90;;;;;;5001072;28;20222;-85
2022/03/06 08:44:09;;;;;;;12.53;9.33;;;5.10;99.90;;;;;;5007288;28;20243;-84
2022/03/06 08:46:37;;;;;;;11.27;8.30;;;5.10;99.90;;;;;;4997887;28;20239;-80
2022/03/06 08:49:04;;;;;;;12.00;8.77;;;5.00;99.90;;;;;;4998584;28;20210;-80
2022/03/06 08:51:32;;;;;;;12.47;9.13;;;4.70;99.90;;;;;;4995680;28;20206;-81
2022/03/06 08:54:00;;;;;;;11.17;8.63;;;4.70;99.90;;;;;;5011361;28;20347;-83
2022/03/06 08:56:27;;;;;;;12.57;8.30;;;5.00;99.90;;;;;;5002328;28;20294;-83
2022/03/06 08:58:56;;;;;;;11.47;8.70;;;4.90;99.90;;;;;;4997962;28;20260;-80
2022/03/06 09:01:22;;;;;;;14.53;9.43;;;5.00;99.90;;;;;;4995617;28;20212;-83
2022/03/06 09:03:50;;;;;;;11.03;7.97;;;5.10;99.90;;;;;;4996894;28;20303;-82
2022/03/06 09:06:17;;;;;;;11.83;8.33;;;5.30;99.90;;;;;;4995508;28;20868;-82
2022/03/06 09:08:44;;;;;;;11.23;8.00;;;5.40;99.90;;;;;;4993749;28;20418;-81
2022/03/06 09:11:11;;;;;;;11.27;8.60;;;6.00;99.90;;;;;;4995345;28;20266;-84
2022/03/06 09:13:38;;;;;;;11.47;8.03;;;5.80;99.90;;;;;;4996994;28;20348;-82
2022/03/06 09:16:05;;;;;;;9.13;7.57;;;5.80;99.90;;;;;;4994575;28;20206;-82
2022/03/06 09:18:33;;;;;;;9.53;7.60;;;5.50;99.90;;;;;;4996013;28;20231;-82
2022/03/06 09:21:13;;;;;;;10.50;8.23;;;5.60;99.90;;;;;;5000237;28;20197;-81
2022/03/06 09:24:08;;;;;;;11.73;8.17;;;5.70;99.90;;;;;;4994482;28;20255;-83
2022/03/06 09:26:35;;;;;;;11.03;8.30;;;6.00;99.90;;;;;;4993680;28;20276;-82
2022/03/06 09:29:04;;;;;;;12.73;8.20;;;6.20;99.90;;;;;;4995036;28;20201;-82
2022/03/06 09:31:31;;;;;;;10.20;7.50;;;6.40;99.90;;;;;;4993422;28;20212;-84
2022/03/06 09:33:58;;;;;;;11.67;8.43;;;6.80;99.90;;;;;;5000844;28;20227;-83
2022/03/06 09:36:43;;;;;;;9.83;7.77;;;7.10;99.90;;;;;;5013800;28;20652;-83
2022/03/06 09:39:13;;;;;;;9.17;7.20;;;7.20;99.90;;;;;;4999633;28;20657;-82
2022/03/06 09:41:40;;;;;;;9.87;7.17;;;6.90;99.90;;;;;;4995272;28;20679;-82
2022/03/06 09:44:09;;;;;;;8.67;7.20;;;7.00;99.90;;;;;;4999748;28;20241;-82
2022/03/06 09:46:37;;;;;;;10.43;7.93;;;7.10;99.90;;;;;;4998580;28;20199;-83
2022/03/06 09:49:06;;;;;;;10.87;7.40;;;6.90;99.90;;;;;;4994716;28;20213;-82
2022/03/06 09:51:35;;;;;;;8.93;7.03;;;6.40;99.90;;;;;;4998432;28;20208;-81
2022/03/06 09:54:02;;;;;;;10.20;8.00;;;7.00;99.90;;;;;;4998268;28;20227;-81
2022/03/06 09:56:29;;;;;;;10.67;7.43;;;7.50;99.90;;;;;;5000172;28;20212;-81
2022/03/06 09:58:57;;;;;;;9.33;7.20;;;7.80;99.90;;;;;;4996560;28;20750;-80
2022/03/06 10:01:24;;;;;;;8.83;7.40;;;7.90;99.90;;;;;;4997519;28;20557;-80
2022/03/06 10:03:51;;;;;;;10.93;7.77;;;7.60;99.90;;;;;;5001566;28;20533;-80
2022/03/06 10:06:19;;;;;;;8.90;7.20;;;7.90;99.90;;;;;;4997459;28;20331;-80
2022/03/06 10:09:04;;;;;;;9.57;7.30;;;7.40;99.90;;;;;;4998219;28;20215;-80
2022/03/06 10:11:31;;;;;;;8.40;6.47;;;7.80;99.90;;;;;;4993501;28;20239;-80
2022/03/06 10:13:58;;;;;;;8.97;6.40;;;7.80;99.90;;;;;;4998367;28;20225;-79
2022/03/06 10:16:25;;;;;;;10.20;6.73;;;7.50;99.90;;;;;;4996978;28;20803;-81
2022/03/06 10:18:54;;;;;;;9.40;7.47;;;7.40;99.90;;;;;;4996946;28;20230;-80
2022/03/06 10:21:28;;;;;;;9.37;6.93;;;7.50;99.90;;;;;;4998594;28;20723;-80
2022/03/06 10:24:00;;;;;;;7.67;6.37;;;7.60;99.90;;;;;;5000042;28;20240;-80
2022/03/06 10:26:32;;;;;;;10.87;7.53;;;8.20;99.90;;;;;;5000390;28;20621;-80
2022/03/06 10:29:04;;;;;;;10.07;7.03;;;7.90;99.90;;;;;;5001117;28;20220;-80
2022/03/06 10:31:34;;;;;;;9.63;6.90;;;7.90;99.90;;;;;;4993345;28;20203;-81
2022/03/06 10:34:10;;;;;;;9.47;7.10;;;7.90;99.90;;;;;;5001667;28;20220;-80
2022/03/06 10:36:44;;;;;;;9.50;6.83;;;8.10;99.90;;;;;;4997630;28;20219;-80
2022/03/06 10:39:19;;;;;;;8.93;6.60;;;8.40;99.90;;;;;;4993041;28;20211;-80
2022/03/06 10:41:49;;;;;;;10.87;6.20;;;7.60;99.90;;;;;;4998656;28;20208;-80
2022/03/06 10:44:20;;;;;;;9.80;6.90;;;7.20;99.90;;;;;;5008688;28;20203;-80
2022/03/06 10:47:04;;;;;;;7.13;6.37;;;8.00;99.90;;;;;;4998617;28;20248;-80
2022/03/06 10:49:32;;;;;;;8.50;6.20;;;8.00;99.90;;;;;;5006222;28;20203;-82
2022/03/06 10:52:23;;;;;;;8.17;6.23;;;7.70;99.90;;;;;;5000535;28;20239;-82
2022/03/06 10:54:55;;;;;;;8.43;6.20;;;7.30;99.90;;;;;;4996520;28;20438;-80
2022/03/06 10:57:23;;;;;;;8.90;6.87;;;7.80;99.90;;;;;;5005024;28;20219;-85
2022/03/06 10:59:50;;;;;;;8.77;7.30;;;8.10;99.90;;;;;;4998755;28;20299;-82
2022/03/06 11:02:18;;;;;;;7.53;6.73;;;8.20;99.90;;;;;;4992097;28;20227;-82
2022/03/06 11:04:53;;;;;;;9.23;7.00;;;8.50;99.90;;;;;;4992684;28;20276;-87
2022/03/06 11:07:21;;;;;;;9.63;6.57;;;8.70;99.90;;;;;;4999968;28;20220;-85
2022/03/06 11:09:49;;;;;;;9.73;7.20;;;8.50;99.90;;;;;;5006681;28;20258;-82
2022/03/06 11:12:18;;;;;;;8.53;6.93;;;9.10;99.90;;;;;;4996021;28;20201;-83
2022/03/06 11:14:45;;;;;;;10.03;6.83;;;9.00;99.90;;;;;;5001752;28;20596;-82
2022/03/06 11:17:14;;;;;;;9.57;6.70;;;9.00;99.90;;;;;;4998150;28;20202;-82
2022/03/06 11:19:42;;;;;;;8.83;6.73;;;9.20;99.90;;;;;;5015079;28;20330;-82
2022/03/06 11:22:31;;;;;;;6.73;5.87;;;9.60;99.90;;;;;;4997947;28;20352;-84
2022/03/06 11:25:05;;;;;;;10.00;7.10;;;9.10;99.90;;;;;;5013452;28;20293;-82
2022/03/06 11:27:32;;;;;;;9.63;6.17;;;8.80;99.90;;;;;;4998747;28;20217;-84
2022/03/06 11:30:07;;;;;;;9.83;6.70;;;9.20;99.90;;;;;;4993539;28;20226;-82
2022/03/06 11:32:37;;;;;;;11.10;7.10;;;8.80;99.90;;;;;;4998930;28;20674;-81
2022/03/06 11:35:08;;;;;;;7.53;6.50;;;8.80;99.90;;;;;;4995533;28;20847;-82
2022/03/06 11:37:56;;;;;;;8.93;6.60;;;9.20;99.90;;;;;;5002872;28;20574;-82
2022/03/06 11:40:48;;;;;;;8.33;6.90;;;8.90;99.90;;;;;;4997887;28;20575;-83
2022/03/06 11:43:49;;;;;;;7.53;5.73;;;9.40;99.90;;;;;;5006559;28;20212;-84
2022/03/06 11:46:21;;;;;;;8.23;6.63;;;9.10;99.90;;;;;;4996454;28;20197;-82
2022/03/06 11:48:52;;;;;;;8.60;6.47;;;9.30;99.90;;;;;;4997080;28;20227;-82
2022/03/06 11:51:21;;;;;;;7.67;6.87;;;9.80;99.90;;;;;;4997096;28;20216;-82
2022/03/06 11:53:56;;;;;;;8.50;6.20;;;9.50;99.90;;;;;;4998572;28;20257;-82
2022/03/06 11:56:34;;;;;;;7.40;6.30;;;9.80;99.90;;;;;;5012296;28;20294;-81
2022/03/06 11:59:24;;;;;;;7.77;6.73;;;9.70;99.90;;;;;;4997411;28;20259;-83
2022/03/06 12:01:52;;;;;;;9.53;6.57;;;9.60;99.90;;;;;;4995168;28;20202;-83
2022/03/06 12:04:21;;;;;;;7.97;6.33;;;9.30;99.90;;;;;;4996155;28;20224;-82
2022/03/06 12:06:55;;;;;;;6.37;5.53;;;9.70;99.90;;;;;;4997746;28;20319;-81
2022/03/06 12:09:34;;;;;;;8.00;6.87;;;8.90;99.90;;;;;;5003336;28;20212;-81
2022/03/06 12:12:04;;;;;;;9.17;6.20;;;9.40;99.90;;;;;;5000194;28;20205;-81
2022/03/06 12:14:32;;;;;;;9.77;6.60;;;9.10;99.90;;;;;;4997838;28;20220;-82
2022/03/06 12:17:07;;;;;;;8.37;6.53;;;9.00;99.90;;;;;;4996782;28;20217;-81
2022/03/06 12:19:54;;;;;;;7.50;6.30;;;9.00;99.90;;;;;;4996561;28;20205;-81
2022/03/06 12:22:33;;;;;;;7.23;5.67;;;9.60;99.90;;;;;;4989462;28;20215;-82
2022/03/06 12:25:06;;;;;;;9.10;5.90;;;9.60;99.90;;;;;;4998822;28;20209;-82
2022/03/06 12:27:34;;;;;;;9.17;6.23;;;9.30;99.90;;;;;;5011625;28;20231;-82
2022/03/06 12:30:05;;;;;;;7.53;6.57;;;9.10;99.90;;;;;;4999698;28;20307;-82
2022/03/06 12:32:37;;;;;;;6.40;5.73;;;9.80;99.90;;;;;;4997721;28;20209;-81
2022/03/06 12:35:11;;;;;;;9.80;6.87;;;9.70;99.90;;;;;;5001524;28;20333;-81
2022/03/06 12:37:51;;;;;;;8.73;6.77;;;9.50;99.90;;;;;;5001230;28;20214;-81
2022/03/06 12:40:20;;;;;;;10.03;6.63;;;10.00;99.90;;;;;;5001355;28;20325;-80
2022/03/06 12:43:00;;;;;;;8.90;5.43;;;10.70;99.90;;;;;;5011227;28;20207;-81
2022/03/06 12:45:28;;;;;;;6.93;5.93;;;10.80;99.90;;;;;;4996937;28;20272;-81
2022/03/06 12:47:57;;;;;;;6.73;5.80;;;10.20;99.90;;;;;;4996571;28;20587;-81
2022/03/06 12:50:24;;;;;;;8.03;6.50;;;10.10;99.90;;;;;;4993985;28;20674;-81
2022/03/06 12:52:57;;;;;;;8.03;6.10;;;10.40;99.90;;;;;;5002222;28;20213;-81